Time;durP1;ratioP1;P1;durP2;ratioP2;P2;SDS_P1;SDS_P2;PMS_P1;PMS_P2;Temp;Humidity;BMP_temperature;BMP_pressure;BME280_temperature;BME280_humidity;BME280_pressure;Samples;Min_cycle;Max_cycle;Signal;HPM_P1;HPM_P2
2023/10/29 00:02:21;;;;;;;7.25;2.60;;;;;;;10.59;100.00;93017.81;5067941;28;20052;-81
2023/10/29 00:04:49;;;;;;;5.78;2.25;;;;;;;10.47;100.00;92996.41;5068073;28;20072;-81
2023/10/29 00:07:16;;;;;;;4.93;2.33;;;;;;;10.63;100.00;93013.03;5069497;28;20102;-81
2023/10/29 00:09:43;;;;;;;5.53;2.40;;;;;;;10.65;100.00;93019.53;5067212;28;20048;-82
2023/10/29 00:12:09;;;;;;;9.10;2.58;;;;;;;10.66;100.00;93017.75;5069419;28;20504;-82
2023/10/29 00:14:36;;;;;;;5.85;1.83;;;;;;;10.73;100.00;93023.59;5069591;28;20052;-82
2023/10/29 00:17:03;;;;;;;5.80;2.00;;;;;;;10.75;100.00;93026.75;5064904;28;20109;-82
2023/10/29 00:19:32;;;;;;;5.60;2.20;;;;;;;10.66;100.00;93023.66;5068801;28;20472;-83
2023/10/29 00:22:00;;;;;;;5.93;2.05;;;;;;;10.54;100.00;93002.25;5066304;28;20045;-82
2023/10/29 00:24:26;;;;;;;6.05;1.98;;;;;;;10.59;100.00;93015.25;5061783;28;20103;-82
2023/10/29 00:26:53;;;;;;;6.40;2.53;;;;;;;10.68;100.00;93037.09;5067294;28;20048;-82
2023/10/29 00:29:20;;;;;;;6.70;2.30;;;;;;;10.62;100.00;93032.00;5069112;28;20090;-81
2023/10/29 00:31:47;;;;;;;4.75;2.20;;;;;;;10.56;100.00;93039.56;5066924;28;20565;-82
2023/10/29 00:34:13;;;;;;;4.45;2.13;;;;;;;10.58;100.00;93041.13;5065537;28;20044;-82
2023/10/29 00:36:40;;;;;;;6.50;2.63;;;;;;;10.45;100.00;93045.41;5063105;28;20113;-82
2023/10/29 00:39:09;;;;;;;5.40;2.38;;;;;;;10.46;100.00;93044.41;5068837;28;20131;-82
2023/10/29 00:41:36;;;;;;;4.93;2.17;;;;;;;10.39;100.00;93041.09;5065501;28;20550;-82
2023/10/29 00:44:03;;;;;;;5.57;2.60;;;;;;;10.39;100.00;93047.03;5068523;28;20151;-81
2023/10/29 00:46:30;;;;;;;6.78;2.60;;;;;;;10.41;100.00;93051.94;5064196;28;20067;-81
2023/10/29 00:48:57;;;;;;;10.75;2.75;;;;;;;10.36;100.00;93050.00;5066789;28;20048;-83
2023/10/29 00:51:24;;;;;;;6.93;2.53;;;;;;;10.32;100.00;93051.44;5068840;28;20122;-81
2023/10/29 00:53:51;;;;;;;7.13;2.05;;;;;;;10.29;100.00;93042.38;5066004;28;20041;-82
2023/10/29 00:56:19;;;;;;;3.45;1.73;;;;;;;10.28;100.00;93045.16;5064080;28;20163;-82
2023/10/29 00:58:48;;;;;;;6.53;2.33;;;;;;;10.28;100.00;93040.03;5060768;28;20500;-82
2023/10/29 01:01:14;;;;;;;8.43;2.40;;;;;;;10.32;100.00;93043.72;5065034;28;20048;-84
2023/10/29 01:03:42;;;;;;;3.38;1.80;;;;;;;10.32;100.00;93056.56;5068436;28;20051;-81
2023/10/29 01:06:09;;;;;;;4.43;2.20;;;;;;;10.21;100.00;93036.72;5064449;28;20041;-82
2023/10/29 01:08:36;;;;;;;5.45;2.10;;;;;;;10.24;100.00;93049.13;5060626;28;20094;-82
2023/10/29 01:11:04;;;;;;;4.30;2.28;;;;;;;10.20;100.00;93040.28;5065410;28;20049;-81
2023/10/29 01:13:32;;;;;;;5.50;2.00;;;;;;;10.08;100.00;93025.56;5065652;28;20094;-81
2023/10/29 01:15:59;;;;;;;4.72;1.95;;;;;;;10.14;100.00;93040.13;5067571;28;20052;-81
2023/10/29 01:18:26;;;;;;;4.28;2.35;;;;;;;10.13;100.00;93041.13;5062900;28;20075;-82
2023/10/29 01:20:52;;;;;;;5.60;2.47;;;;;;;10.15;100.00;93039.13;5064897;28;20052;-82
2023/10/29 01:23:19;;;;;;;3.58;2.10;;;;;;;10.23;100.00;93048.34;5068105;28;20122;-81
2023/10/29 01:25:47;;;;;;;5.93;2.25;;;;;;;10.10;100.00;93038.97;5068152;28;20131;-82
2023/10/29 01:28:13;;;;;;;5.88;2.10;;;;;;;10.06;100.00;93040.41;5066257;28;20047;-81
2023/10/29 01:30:41;;;;;;;4.10;1.70;;;;;;;10.02;100.00;93044.38;5063124;28;20559;-82
2023/10/29 01:33:08;;;;;;;5.38;2.35;;;;;;;9.84;100.00;93029.72;5062852;28;20117;-82
2023/10/29 01:35:35;;;;;;;5.88;2.33;;;;;;;9.91;100.00;93038.16;5067126;28;20049;-85
2023/10/29 01:38:02;;;;;;;4.47;2.10;;;;;;;9.98;100.00;93053.50;5067610;28;20569;-83
2023/10/29 01:40:29;;;;;;;5.35;2.00;;;;;;;9.94;100.00;93053.13;5068117;28;20125;-86
2023/10/29 01:42:55;;;;;;;3.05;1.70;;;;;;;9.65;100.00;93013.47;5063152;28;20044;-87
2023/10/29 01:45:23;;;;;;;5.82;2.13;;;;;;;9.80;100.00;93052.44;5066538;28;20052;-86
2023/10/29 01:47:51;;;;;;;7.20;2.22;;;;;;;9.82;100.00;93060.69;5068108;28;20097;-85
2023/10/29 01:50:17;;;;;;;6.85;2.88;;;;;;;9.79;100.00;93063.69;5064526;28;20040;-85
2023/10/29 01:52:44;;;;;;;5.88;2.60;;;;;;;9.68;100.00;93060.00;5064193;28;20098;-87
2023/10/29 01:55:11;;;;;;;5.78;2.55;;;;;;;9.66;100.00;93049.19;5067464;28;20408;-86
2023/10/29 01:57:38;;;;;;;4.50;2.38;;;;;;;9.53;100.00;93037.22;5064963;28;20052;-86
2023/10/29 02:00:07;;;;;;;6.28;2.88;;;;;;;9.37;100.00;93018.00;5070926;28;20161;-85
2023/10/29 02:02:34;;;;;;;4.65;2.45;;;;;;;9.60;100.00;93055.13;5059716;28;20073;-87
2023/10/29 02:05:04;;;;;;;5.72;2.50;;;;;;;9.58;100.00;93068.16;5065950;28;20052;-87
2023/10/29 02:07:31;;;;;;;8.20;3.55;;;;;;;9.46;100.00;93069.81;5067817;28;20167;-86
2023/10/29 02:09:58;;;;;;;7.38;3.28;;;;;;;9.39;100.00;93069.06;5064500;28;20169;-82
2023/10/29 02:12:24;;;;;;;6.25;2.95;;;;;;;9.41;100.00;93073.00;5065953;28;20057;-83
2023/10/29 02:14:51;;;;;;;7.78;2.92;;;;;;;9.20;100.00;93053.56;5067439;28;20098;-86
2023/10/29 02:17:18;;;;;;;7.55;2.83;;;;;;;9.31;100.00;93064.97;5065543;28;20849;-86
2023/10/29 02:19:45;;;;;;;7.15;2.80;;;;;;;9.32;100.00;93067.34;5067133;28;20049;-84
2023/10/29 02:22:13;;;;;;;8.13;3.50;;;;;;;9.01;100.00;93025.28;5060760;28;20037;-85
2023/10/29 02:24:39;;;;;;;7.20;2.67;;;;;;;9.31;100.00;93067.53;5066010;28;20052;-85
2023/10/29 02:27:06;;;;;;;6.20;2.58;;;;;;;9.22;100.00;93054.16;5065432;28;20040;-79
2023/10/29 02:29:33;;;;;;;6.72;3.20;;;;;;;9.11;100.00;93059.94;5060568;28;20131;-81
2023/10/29 02:32:00;;;;;;;7.80;3.28;;;;;;;9.16;100.00;93066.00;5066009;28;20067;-80
2023/10/29 02:34:27;;;;;;;8.23;3.30;;;;;;;9.05;100.00;93064.88;5066122;28;20090;-80
2023/10/29 02:36:54;;;;;;;7.40;3.13;;;;;;;8.90;100.00;93061.78;5066889;28;20123;-79
2023/10/29 02:39:22;;;;;;;12.45;3.35;;;;;;;8.92;100.00;93065.72;5063477;28;20101;-82
2023/10/29 02:41:48;;;;;;;6.80;3.53;;;;;;;8.82;100.00;93065.34;5067224;28;20099;-83
2023/10/29 02:44:15;;;;;;;9.77;3.80;;;;;;;8.75;100.00;93062.03;5065731;28;20440;-83
2023/10/29 02:46:42;;;;;;;7.20;3.45;;;;;;;8.81;100.00;93069.69;5065727;28;20045;-83
2023/10/29 02:49:08;;;;;;;8.15;4.10;;;;;;;8.89;100.00;93084.03;5061967;28;20106;-84
2023/10/29 02:51:35;;;;;;;6.82;2.95;;;;;;;8.81;100.00;93074.81;5059897;28;20090;-80
2023/10/29 02:54:03;;;;;;;7.72;3.40;;;;;;;8.76;100.00;93061.84;5066895;28;20531;-81
2023/10/29 02:56:31;;;;;;;5.97;3.22;;;;;;;8.92;100.00;93075.16;5063749;28;20121;-83
2023/10/29 02:58:57;;;;;;;9.65;3.75;;;;;;;8.93;100.00;93066.50;5063195;28;20141;-85
2023/10/29 03:01:24;;;;;;;5.57;3.15;;;;;;;9.01;100.00;93070.59;5070086;28;20109;-84
2023/10/29 03:03:51;;;;;;;10.45;3.78;;;;;;;9.04;100.00;93081.25;5062280;28;20455;-85
2023/10/29 03:06:17;;;;;;;7.88;3.67;;;;;;;9.04;100.00;93081.25;5066061;28;20098;-84
2023/10/29 03:08:44;;;;;;;8.35;3.13;;;;;;;9.02;100.00;93082.44;5061521;28;20107;-84
2023/10/29 03:11:11;;;;;;;6.90;3.35;;;;;;;9.03;100.00;93086.56;5064249;28;20044;-84
2023/10/29 03:13:39;;;;;;;5.85;2.67;;;;;;;8.89;100.00;93078.91;5064655;28;20105;-84
2023/10/29 03:16:07;;;;;;;19.67;9.40;;;;;;;8.78;100.00;93079.53;5062521;28;20059;-84
2023/10/29 03:18:33;;;;;;;38.78;16.65;;;;;;;8.80;100.00;93078.34;5066272;28;20052;-84
2023/10/29 03:21:00;;;;;;;18.38;8.05;;;;;;;8.89;100.00;93098.66;5061551;28;20109;-84
2023/10/29 03:23:27;;;;;;;22.40;8.32;;;;;;;8.87;100.00;93098.03;5064577;28;20049;-83
2023/10/29 03:25:53;;;;;;;37.67;18.50;;;;;;;8.86;100.00;93093.91;5063882;28;20056;-83
2023/10/29 03:28:20;;;;;;;26.77;12.60;;;;;;;8.85;100.00;93102.59;5063081;28;20458;-83
2023/10/29 03:30:48;;;;;;;28.35;13.68;;;;;;;8.75;100.00;93098.66;5066173;28;20049;-84
2023/10/29 03:36:29;;;;;;;11.55;6.00;;;;;;;8.73;100.00;93104.97;4908990;29;20735;-83
2023/10/29 03:42:30;;;;;;;9.35;3.67;;;;;;;8.58;100.00;93087.28;4929184;28;20550;-84
2023/10/29 03:44:57;;;;;;;8.95;4.70;;;;;;;8.75;100.00;93103.78;5002057;28;20048;-84
2023/10/29 03:47:25;;;;;;;8.95;4.47;;;;;;;8.61;100.00;93087.66;5067862;28;20555;-84
2023/10/29 03:49:52;;;;;;;7.00;3.45;;;;;;;8.73;100.00;93102.41;5070134;28;20044;-84
2023/10/29 03:52:20;;;;;;;8.30;3.10;;;;;;;8.63;100.00;93095.16;5066356;28;20875;-85
2023/10/29 03:54:46;;;;;;;7.53;3.20;;;;;;;8.69;100.00;93107.16;5066104;28;20091;-86
2023/10/29 03:57:12;;;;;;;6.95;2.72;;;;;;;8.74;100.00;93112.47;5067215;28;20551;-87
2023/10/29 03:59:39;;;;;;;4.70;2.53;;;;;;;8.43;100.00;93075.47;5069850;28;20052;-87
2023/10/29 04:02:06;;;;;;;7.57;2.72;;;;;;;8.70;100.00;93118.97;5072884;28;20052;-85
2023/10/29 04:04:35;;;;;;;4.20;2.55;;;;;;;8.71;100.00;93125.69;5060780;28;20102;-85
2023/10/29 04:07:02;;;;;;;4.95;2.10;;;;;;;8.61;100.00;93125.28;5069178;28;20048;-83
2023/10/29 04:09:29;;;;;;;14.25;7.00;;;;;;;8.49;100.00;93118.19;5069382;28;20566;-84
2023/10/29 04:11:55;;;;;;;19.15;9.43;;;;;;;8.38;100.00;93132.34;5069665;28;20102;-83
2023/10/29 04:14:22;;;;;;;21.33;12.23;;;;;;;8.36;100.00;93131.78;5066313;28;20098;-82
2023/10/29 04:16:49;;;;;;;22.42;10.32;;;;;;;8.21;100.00;93136.31;5065830;28;20122;-83
2023/10/29 04:19:16;;;;;;;18.52;9.80;;;;;;;8.26;100.00;93124.50;5064002;28;20447;-84
2023/10/29 04:21:44;;;;;;;15.98;7.07;;;;;;;8.24;100.00;93121.34;5067690;28;20045;-87
2023/10/29 04:24:11;;;;;;;10.40;5.60;;;;;;;7.99;100.00;93087.88;5063435;28;20052;-83
2023/10/29 04:26:37;;;;;;;12.00;5.53;;;;;;;8.17;100.00;93110.31;5069702;28;20048;-85
2023/10/29 04:29:04;;;;;;;10.10;4.75;;;;;;;8.22;100.00;93109.72;5069213;28;21281;-84
2023/10/29 04:31:31;;;;;;;11.38;5.30;;;;;;;8.24;100.00;93105.22;5065664;28;20041;-83
2023/10/29 04:33:58;;;;;;;8.52;4.50;;;;;;;8.24;100.00;93112.88;5066669;28;20048;-83
2023/10/29 04:36:25;;;;;;;9.18;3.70;;;;;;;8.25;100.00;93117.78;5069028;28;20052;-84
2023/10/29 04:38:53;;;;;;;11.68;6.90;;;;;;;8.15;100.00;93120.75;5066546;28;20040;-81
2023/10/29 04:41:20;;;;;;;9.98;4.30;;;;;;;8.24;100.00;93118.78;5068682;28;20048;-82
2023/10/29 04:43:47;;;;;;;10.93;6.30;;;;;;;8.28;100.00;93117.41;5069056;28;20110;-82
2023/10/29 04:46:14;;;;;;;14.00;6.05;;;;;;;8.32;100.00;93117.78;5064929;28;20118;-83
2023/10/29 04:48:40;;;;;;;12.20;5.80;;;;;;;8.31;100.00;93118.78;5063254;28;20436;-82
2023/10/29 04:51:08;;;;;;;15.98;7.07;;;;;;;8.29;100.00;93113.84;5067240;28;20045;-82
2023/10/29 04:53:35;;;;;;;17.52;7.00;;;;;;;8.21;100.00;93096.16;5065495;28;20179;-82
2023/10/29 04:56:03;;;;;;;10.48;6.03;;;;;;;8.36;100.00;93115.63;5063103;28;20444;-82
2023/10/29 04:58:32;;;;;;;12.85;6.15;;;;;;;8.29;100.00;93131.00;5067900;28;20106;-82
2023/10/29 05:00:59;;;;;;;14.63;6.72;;;;;;;8.14;100.00;93119.19;5071626;28;20168;-82
2023/10/29 05:03:27;;;;;;;8.55;4.40;;;;;;;7.94;100.00;93131.16;5064981;28;20135;-82
2023/10/29 05:05:54;;;;;;;6.50;4.25;;;;;;;8.00;100.00;93138.84;5067796;28;20088;-82
2023/10/29 05:08:21;;;;;;;11.80;5.20;;;;;;;8.06;100.00;93136.50;5066501;28;20500;-82
2023/10/29 05:10:48;;;;;;;9.73;4.78;;;;;;;7.98;100.00;93137.47;5067193;28;20048;-84
2023/10/29 05:13:16;;;;;;;7.88;4.07;;;;;;;7.69;100.00;93094.13;5066734;28;20421;-85
2023/10/29 05:15:47;;;;;;;7.97;4.30;;;;;;;8.07;100.00;93158.53;5066531;28;20521;-82
2023/10/29 05:18:14;;;;;;;9.02;5.45;;;;;;;8.05;100.00;93160.50;5068555;28;20090;-82
2023/10/29 05:20:40;;;;;;;11.18;5.97;;;;;;;7.99;100.00;93167.97;5065009;28;20106;-84
2023/10/29 05:23:08;;;;;;;10.35;5.25;;;;;;;7.94;100.00;93174.63;5067891;28;20492;-84
2023/10/29 05:25:36;;;;;;;13.07;5.50;;;;;;;7.91;100.00;93175.81;5063189;28;20145;-84
2023/10/29 05:28:02;;;;;;;14.90;5.45;;;;;;;7.93;100.00;93176.44;5068070;28;20076;-82
2023/10/29 05:30:31;;;;;;;13.55;7.30;;;;;;;7.85;100.00;93174.03;5071912;28;20047;-82
2023/10/29 05:32:57;;;;;;;10.50;5.50;;;;;;;7.91;100.00;93182.72;5076866;28;20566;-83
2023/10/29 05:35:24;;;;;;;12.50;5.80;;;;;;;7.52;100.00;93152.50;5070865;28;20048;-85
2023/10/29 05:37:51;;;;;;;13.50;6.15;;;;;;;7.80;100.00;93192.53;5068956;28;20041;-84
2023/10/29 05:40:18;;;;;;;12.98;5.95;;;;;;;7.83;100.00;93207.47;5065129;28;20131;-85
2023/10/29 05:42:45;;;;;;;12.93;6.25;;;;;;;7.80;100.00;93192.53;5074320;28;20103;-84
2023/10/29 05:45:11;;;;;;;10.63;5.63;;;;;;;7.99;100.00;93206.34;5071720;28;20060;-85
2023/10/29 05:47:40;;;;;;;13.48;7.15;;;;;;;8.00;100.00;93195.13;5079882;28;20501;-85
2023/10/29 05:50:07;;;;;;;13.25;5.90;;;;;;;8.22;100.00;93201.84;5069360;28;20086;-83
2023/10/29 05:52:34;;;;;;;12.55;6.07;;;;;;;8.19;100.00;93187.66;5082812;28;20098;-82
2023/10/29 05:55:02;;;;;;;11.90;5.97;;;;;;;8.31;100.00;93185.31;5086166;28;20574;-84
2023/10/29 05:57:28;;;;;;;14.27;5.93;;;;;;;8.65;100.00;93213.50;5080274;28;20156;-82
2023/10/29 06:00:09;;;;;;;16.77;6.43;;;;;;;8.73;100.00;93221.00;5065185;28;20045;-84
2023/10/29 06:02:36;;;;;;;15.23;6.78;;;;;;;8.84;100.00;93222.16;5073433;28;20063;-85
2023/10/29 06:05:05;;;;;;;16.90;6.80;;;;;;;8.95;100.00;93226.69;5067786;28;20056;-84
2023/10/29 06:07:31;;;;;;;16.40;6.63;;;;;;;9.07;100.00;93236.34;5050133;28;20045;-84
2023/10/29 06:09:58;;;;;;;18.83;6.78;;;;;;;9.12;100.00;93230.63;5061166;28;20546;-84
2023/10/29 06:12:26;;;;;;;16.60;6.00;;;;;;;9.13;100.00;93219.38;5068663;28;20060;-83
2023/10/29 06:14:53;;;;;;;16.17;6.47;;;;;;;9.18;100.00;93228.06;5067615;28;20045;-83
2023/10/29 06:17:31;;;;;;;15.53;5.93;;;;;;;9.33;100.00;93229.59;5069071;27;1722034;-81
2023/10/29 06:19:58;;;;;;;14.88;6.28;;;;;;;9.44;100.00;93235.91;5101878;28;20044;-80
2023/10/29 06:22:24;;;;;;;16.30;7.40;;;;;;;9.48;100.00;93234.47;5103714;28;20043;-80
2023/10/29 06:24:51;;;;;;;20.27;7.63;;;;;;;9.57;100.00;93232.47;5104779;28;20059;-80
2023/10/29 06:27:18;;;;;;;16.00;7.00;;;;;;;9.53;100.00;93210.81;5096368;28;20945;-80
2023/10/29 06:29:45;;;;;;;16.70;7.82;;;;;;;9.79;100.00;93239.91;5080209;28;20522;-81
2023/10/29 06:32:12;;;;;;;21.95;8.88;;;;;;;9.88;100.00;93243.81;5084444;28;21177;-80
2023/10/29 06:34:45;;;;;;;21.02;9.85;;;;;;;9.98;100.00;93254.44;5083971;28;20048;-80
2023/10/29 06:37:12;;;;;;;30.00;13.38;;;;;;;9.91;100.00;93268.28;5088993;28;20101;-79
2023/10/29 06:39:38;;;;;;;20.60;10.13;;;;;;;9.97;100.00;93259.78;5083491;28;20201;-79
2023/10/29 06:44:50;;;;;;;25.80;10.47;;;;;;;10.18;100.00;93252.78;5082484;28;20051;-80
2023/10/29 06:47:17;;;;;;;23.88;10.35;;;;;;;10.39;100.00;93251.66;5064680;28;20405;-79
2023/10/29 06:49:45;;;;;;;27.25;11.82;;;;;;;10.46;100.00;93247.28;5064551;28;20048;-80
2023/10/29 06:52:11;;;;;;;25.92;10.95;;;;;;;10.72;100.00;93260.16;5077163;28;20106;-80
2023/10/29 06:54:38;;;;;;;47.05;18.58;;;;;;;10.80;100.00;93258.09;5082841;28;20086;-81
2023/10/29 06:57:05;;;;;;;32.83;13.23;;;;;;;10.94;100.00;93276.00;5083465;28;20048;-80
2023/10/29 06:59:33;;;;;;;27.23;10.60;;;;;;;11.06;100.00;93266.59;5081872;28;20133;-80
2023/10/29 07:02:00;;;;;;;24.67;9.25;;;;;;;11.19;100.00;93259.78;5086474;28;20048;-80
2023/10/29 07:04:26;;;;;;;21.98;8.57;;;;;;;11.21;100.00;93248.28;5084227;28;20109;-80
2023/10/29 07:06:54;;;;;;;23.38;8.52;;;;;;;11.54;100.00;93266.97;5083383;28;20060;-80
2023/10/29 07:09:21;;;;;;;19.17;7.60;;;;;;;11.68;100.00;93259.91;5082803;28;20048;-81
2023/10/29 07:11:48;;;;;;;16.77;7.57;;;;;;;11.75;100.00;93247.75;5080184;28;20745;-81
2023/10/29 07:14:14;;;;;;;18.35;7.05;;;;;;;11.97;100.00;93247.28;5082563;28;20048;-81
2023/10/29 07:16:44;;;;;;;17.70;7.28;;;;;;;12.13;100.00;93234.84;5082933;28;20496;-80
2023/10/29 07:19:12;;;;;;;21.15;8.35;;;;;;;12.26;100.00;93244.16;5082683;28;20055;-81
2023/10/29 07:21:39;;;;;;;20.73;9.25;;;;;;;12.49;100.00;93265.88;5082161;28;20385;-80
2023/10/29 07:24:08;;;;;;;19.80;7.80;;;;;;;12.63;100.00;93280.13;5085987;28;20048;-80
2023/10/29 07:26:35;;;;;;;21.13;8.25;;;;;;;12.56;100.00;93264.00;5077758;28;20053;-80
2023/10/29 07:29:05;;;;;;;18.55;8.95;;;;;;;12.74;100.00;93281.19;5068342;28;20044;-80
2023/10/29 07:31:33;;;;;;;19.02;8.45;;;;;;;12.83;100.00;93290.16;5069347;28;20570;-80
2023/10/29 07:34:00;;;;;;;17.13;7.95;;;;;;;12.81;100.00;93278.50;5066484;28;20501;-81
2023/10/29 07:36:28;;;;;;;21.15;8.05;;;;;;;13.04;100.00;93292.41;5069919;28;20493;-80
2023/10/29 07:38:55;;;;;;;20.98;7.35;;;;;;;13.04;100.00;93292.41;5065840;28;20114;-80
2023/10/29 07:41:23;;;;;;;20.88;9.02;;;;;;;13.05;100.00;93288.84;5064928;28;20044;-80
2023/10/29 07:43:50;;;;;;;22.73;8.77;;;;;;;13.18;100.00;93290.41;5070155;28;20106;-81
2023/10/29 07:46:17;;;;;;;20.58;8.18;;;;;;;13.34;99.36;93281.25;5069388;28;20605;-81
2023/10/29 07:48:44;;;;;;;19.45;7.13;;;;;;;13.42;99.95;93280.13;5068782;28;20052;-81
2023/10/29 07:51:10;;;;;;;15.90;7.05;;;;;;;13.48;99.93;93271.50;5069046;28;20049;-81
2023/10/29 07:53:37;;;;;;;17.92;5.93;;;;;;;13.67;96.65;93273.94;5072795;28;20048;-80
2023/10/29 07:56:09;;;;;;;14.85;6.68;;;;;;;14.01;93.59;93297.34;5068976;28;20449;-81
2023/10/29 07:58:37;;;;;;;14.85;6.50;;;;;;;13.96;91.02;93274.00;5069227;28;20048;-81
2023/10/29 08:01:10;;;;;;;20.55;7.10;;;;;;;14.32;91.29;93297.13;5064212;28;20507;-80
2023/10/29 08:03:37;;;;;;;20.63;7.13;;;;;;;14.50;90.03;93296.16;5066087;28;20098;-81
2023/10/29 08:06:04;;;;;;;17.17;6.70;;;;;;;14.67;91.00;93293.59;5061909;28;20930;-81
2023/10/29 08:08:31;;;;;;;17.75;7.07;;;;;;;14.82;86.88;93293.13;5062061;28;20985;-81
2023/10/29 08:10:59;;;;;;;18.33;7.43;;;;;;;14.81;88.99;93273.44;5062702;28;20048;-81
2023/10/29 08:13:26;;;;;;;22.42;8.73;;;;;;;14.93;86.22;93258.66;5063388;28;20143;-81
2023/10/29 08:15:54;;;;;;;19.25;7.80;;;;;;;15.27;85.44;93270.00;5063261;28;20118;-81
2023/10/29 08:18:21;;;;;;;19.20;7.45;;;;;;;15.57;86.63;93292.16;5063663;28;20101;-81
2023/10/29 08:20:48;;;;;;;22.98;9.20;;;;;;;15.80;83.65;93300.72;5063319;28;20583;-81
2023/10/29 08:23:15;;;;;;;20.77;7.63;;;;;;;15.68;82.19;93267.16;5063993;28;20069;-80
2023/10/29 08:25:42;;;;;;;19.70;8.55;;;;;;;15.90;82.79;93306.84;5062687;28;20082;-82
2023/10/29 08:28:09;;;;;;;26.73;9.05;;;;;;;15.82;82.05;93290.91;5063284;28;20048;-80
2023/10/29 08:30:36;;;;;;;20.33;7.55;;;;;;;15.96;81.72;93297.34;5063020;28;20540;-80
2023/10/29 08:33:04;;;;;;;20.52;6.63;;;;;;;15.82;79.01;93263.22;5062973;28;20120;-81
2023/10/29 08:35:31;;;;;;;17.55;4.88;;;;;;;16.13;77.89;93292.09;5060700;28;20094;-81
2023/10/29 08:37:57;;;;;;;14.43;4.40;;;;;;;16.27;78.65;93297.69;5061713;28;20435;-81
2023/10/29 08:40:24;;;;;;;14.93;4.30;;;;;;;16.54;81.79;93291.72;5061443;28;20048;-80
2023/10/29 08:42:51;;;;;;;17.35;5.18;;;;;;;16.80;78.41;93299.75;5063466;28;20686;-81
2023/10/29 08:45:19;;;;;;;17.65;5.10;;;;;;;17.00;78.10;93311.34;5061786;28;20052;-81
2023/10/29 08:47:47;;;;;;;15.32;4.65;;;;;;;17.16;75.07;93312.28;5065500;28;20051;-82
2023/10/29 08:50:15;;;;;;;13.50;4.75;;;;;;;17.13;74.00;93317.19;5063195;28;20455;-81
2023/10/29 08:52:42;;;;;;;13.32;3.38;;;;;;;17.19;74.70;93300.63;5063644;28;20048;-80
2023/10/29 08:55:09;;;;;;;12.98;3.00;;;;;;;17.23;73.85;93299.88;5065110;28;20040;-81
2023/10/29 08:57:35;;;;;;;16.67;3.22;;;;;;;17.56;77.07;93305.03;5063980;28;20451;-80
2023/10/29 09:00:03;;;;;;;13.40;3.58;;;;;;;17.78;72.41;93301.53;5068585;28;20052;-81
2023/10/29 09:02:30;;;;;;;7.68;2.53;;;;;;;17.80;70.64;93293.44;5066592;28;20102;-81
2023/10/29 09:04:57;;;;;;;8.02;2.55;;;;;;;17.73;70.41;93285.91;5066839;28;20468;-80
2023/10/29 09:07:27;;;;;;;8.48;1.95;;;;;;;18.09;69.59;93308.72;5068302;28;20057;-80
2023/10/29 09:09:54;;;;;;;7.22;2.38;;;;;;;17.95;69.12;93306.53;5065797;28;20055;-81
2023/10/29 09:12:21;;;;;;;5.90;1.60;;;;;;;17.84;68.59;93299.72;5064415;28;20097;-80
2023/10/29 09:14:48;;;;;;;8.65;2.10;;;;;;;17.90;68.87;93296.91;5067658;28;20185;-80
2023/10/29 09:17:15;;;;;;;6.35;1.45;;;;;;;17.86;68.49;93303.63;5065775;28;20052;-80
2023/10/29 09:19:41;;;;;;;5.40;1.58;;;;;;;17.89;69.70;93273.75;5067661;28;20902;-80
2023/10/29 09:22:08;;;;;;;7.07;1.30;;;;;;;18.11;70.03;93280.63;5066196;28;20090;-79
2023/10/29 09:24:36;;;;;;;4.82;1.65;;;;;;;18.35;70.59;93288.78;5065654;28;20568;-80
2023/10/29 09:27:03;;;;;;;5.57;1.55;;;;;;;18.37;66.56;93270.31;5062484;28;20129;-81
2023/10/29 09:29:32;;;;;;;7.28;2.08;;;;;;;18.30;65.81;93299.91;5063709;28;20562;-79
2023/10/29 09:31:59;;;;;;;8.25;1.80;;;;;;;18.45;66.82;93289.81;5065882;28;20056;-79
2023/10/29 09:34:26;;;;;;;5.70;1.85;;;;;;;18.35;65.96;93287.97;5062574;28;20056;-80
2023/10/29 09:36:53;;;;;;;6.55;1.42;;;;;;;18.21;65.36;93272.06;5065417;28;20053;-81
2023/10/29 09:39:20;;;;;;;7.05;1.70;;;;;;;18.56;64.73;93294.78;5067146;28;20068;-80
2023/10/29 09:41:51;;;;;;;5.47;1.30;;;;;;;18.43;66.61;93257.06;5063756;28;20682;-79
2023/10/29 09:44:21;;;;;;;6.65;1.70;;;;;;;18.83;68.43;93259.19;5065904;28;20071;-80
2023/10/29 09:46:58;;;;;;;4.68;1.17;;;;;;;19.12;61.85;93292.53;5064270;28;20093;-81
2023/10/29 09:49:25;;;;;;;3.83;1.10;;;;;;;19.21;60.19;93295.41;5066779;28;20449;-81
2023/10/29 09:51:52;;;;;;;5.28;1.15;;;;;;;19.42;61.19;93290.94;5063063;28;20052;-80
2023/10/29 09:54:18;;;;;;;7.68;1.30;;;;;;;19.52;61.63;93284.19;5060592;28;20048;-79
2023/10/29 09:56:45;;;;;;;4.20;1.02;;;;;;;19.82;61.03;93287.75;5065913;28;20057;-79
2023/10/29 09:59:13;;;;;;;8.48;1.77;;;;;;;20.01;60.26;93286.13;5064145;28;20082;-79
2023/10/29 10:01:41;;;;;;;6.57;1.55;;;;;;;20.13;61.32;93288.44;5068096;28;20478;-80
2023/10/29 10:04:07;;;;;;;8.45;1.67;;;;;;;20.38;60.91;93275.56;5068065;28;20090;-79
2023/10/29 10:06:37;;;;;;;8.38;1.23;;;;;;;20.60;60.45;93277.00;5064357;28;20048;-79
2023/10/29 10:09:05;;;;;;;6.60;1.50;;;;;;;20.26;55.48;93289.69;5063787;28;20095;-79
2023/10/29 10:11:32;;;;;;;6.40;1.27;;;;;;;20.02;55.58;93282.50;5065686;28;20519;-79
2023/10/29 10:13:59;;;;;;;5.18;1.10;;;;;;;19.83;54.88;93274.44;5062533;28;20397;-79
2023/10/29 10:16:27;;;;;;;11.02;1.50;;;;;;;20.00;58.44;93260.34;5065932;28;20048;-79
2023/10/29 10:18:55;;;;;;;7.60;1.65;;;;;;;20.02;55.19;93259.03;5065394;28;20045;-79
2023/10/29 10:21:23;;;;;;;8.50;1.52;;;;;;;20.37;58.14;93266.94;5055806;28;20049;-79
2023/10/29 10:23:51;;;;;;;5.97;1.95;;;;;;;20.61;56.82;93273.34;5069760;28;20493;-78
2023/10/29 10:26:28;;;;;;;6.18;1.95;;;;;;;20.76;56.83;93260.19;5068065;28;20052;-79
2023/10/29 10:28:56;;;;;;;8.35;2.03;;;;;;;20.92;55.57;93257.50;5064996;28;20101;-79
2023/10/29 10:31:25;;;;;;;6.82;2.38;;;;;;;21.08;51.80;93276.44;5062216;28;20102;-79
2023/10/29 10:34:10;;;;;;;8.23;2.50;;;;;;;21.23;53.46;93278.91;5063959;28;20094;-79
2023/10/29 10:36:36;;;;;;;4.38;1.08;;;;;;;21.41;53.15;93266.22;5064968;28;20062;-79
2023/10/29 10:39:04;;;;;;;5.90;2.00;;;;;;;21.58;53.54;93267.63;5066005;28;20048;-79
2023/10/29 10:41:47;;;;;;;5.35;1.70;;;;;;;21.50;50.24;93261.16;5064536;28;20056;-79
2023/10/29 10:44:15;;;;;;;5.35;2.40;;;;;;;21.55;49.64;93257.72;5064693;28;20788;-79
2023/10/29 10:46:49;;;;;;;3.65;1.15;;;;;;;21.66;51.75;93253.16;5065253;28;20060;-81
2023/10/29 10:49:18;;;;;;;2.00;0.68;;;;;;;21.68;46.14;93279.81;5065258;28;20587;-80
2023/10/29 10:51:45;;;;;;;2.78;0.50;;;;;;;21.64;48.09;93266.50;5064327;28;20497;-79
2023/10/29 10:54:12;;;;;;;4.93;0.80;;;;;;;21.52;46.79;93264.28;5056798;28;20694;-79
2023/10/29 10:56:39;;;;;;;2.65;0.82;;;;;;;21.43;47.97;93264.09;5060375;28;20107;-79
2023/10/29 10:59:08;;;;;;;4.22;0.93;;;;;;;21.51;48.92;93265.31;5061101;28;20519;-80
2023/10/29 11:01:35;;;;;;;2.85;0.88;;;;;;;21.38;47.93;93258.91;5060900;28;20106;-79
2023/10/29 11:04:03;;;;;;;4.28;1.15;;;;;;;21.55;48.85;93263.72;5062606;28;20167;-79
2023/10/29 11:06:32;;;;;;;3.85;0.93;;;;;;;21.66;48.15;93258.41;5064443;28;20049;-79
2023/10/29 11:08:59;;;;;;;2.15;0.63;;;;;;;21.35;46.51;93260.25;5064467;28;20862;-79
2023/10/29 11:11:30;;;;;;;2.22;0.60;;;;;;;21.26;49.86;93235.00;5064603;28;20911;-79
2023/10/29 11:14:14;;;;;;;4.63;1.00;;;;;;;21.51;49.79;93252.25;5063871;28;20047;-79
2023/10/29 11:16:54;;;;;;;4.45;1.05;;;;;;;21.43;49.48;93251.03;5067567;28;20875;-78
2023/10/29 11:19:39;;;;;;;3.28;0.95;;;;;;;21.48;49.09;93243.13;5069061;28;20493;-79
2023/10/29 11:22:18;;;;;;;3.05;0.95;;;;;;;21.28;47.27;93249.34;5064498;28;20048;-79
2023/10/29 11:25:39;;;;;;;4.53;1.05;;;;;;;21.05;46.93;93251.63;5066258;28;20626;-79
2023/10/29 11:28:05;;;;;;;4.50;1.00;;;;;;;21.12;49.06;93250.53;5068082;28;20584;-78
2023/10/29 11:30:32;;;;;;;4.47;1.23;;;;;;;21.15;48.89;93242.94;5068641;28;20074;-78
2023/10/29 11:33:18;;;;;;;2.50;1.00;;;;;;;20.85;48.94;93207.38;5070088;28;20590;-79
2023/10/29 11:35:45;;;;;;;9.90;1.73;;;;;;;20.76;47.35;93222.84;5069898;28;20060;-79
2023/10/29 11:38:33;;;;;;;7.50;1.40;;;;;;;21.09;49.65;93236.97;5069390;28;20110;-79
2023/10/29 11:41:00;;;;;;;6.00;1.67;;;;;;;20.93;48.46;93228.47;5066969;28;20080;-78